createdAt,value
2023-01-11T00:00:26.098Z,-6.78
2023-01-11T00:03:00.207Z,-6.79
2023-01-11T00:05:27.133Z,-6.79
2023-01-11T00:07:53.950Z,-6.79
2023-01-11T00:10:20.693Z,-6.82
2023-01-11T00:12:47.630Z,-6.79
2023-01-11T00:15:14.522Z,-6.81
2023-01-11T00:17:41.841Z,-6.83
2023-01-11T00:20:10.164Z,-6.83
2023-01-11T00:22:37.247Z,-6.85
2023-01-11T00:25:04.439Z,-6.88
2023-01-11T00:27:31.202Z,-6.91
2023-01-11T00:29:57.864Z,-6.93
2023-01-11T00:32:24.721Z,-6.94
2023-01-11T00:34:51.318Z,-6.98
2023-01-11T00:37:18.023Z,-7.00
2023-01-11T00:39:44.747Z,-7.03
2023-01-11T00:42:30.732Z,-7.05
2023-01-11T00:45:16.060Z,-7.07
2023-01-11T00:47:57.942Z,-7.09
2023-01-11T00:50:25.240Z,-7.12
2023-01-11T00:52:51.959Z,-7.12
2023-01-11T00:55:18.763Z,-7.12
2023-01-11T00:57:45.411Z,-7.15
2023-01-11T01:00:12.702Z,-7.15
2023-01-11T01:02:39.835Z,-7.14
2023-01-11T01:05:06.985Z,-7.14
2023-01-11T01:07:33.657Z,-7.15
2023-01-11T01:10:00.372Z,-7.14
2023-01-11T01:12:45.804Z,-7.15
2023-01-11T01:15:12.479Z,-7.16
2023-01-11T01:17:39.222Z,-7.21
2023-01-11T01:20:06.810Z,-7.18
2023-01-11T01:22:33.940Z,-7.19
2023-01-11T01:25:00.714Z,-7.19
2023-01-11T01:27:27.330Z,-7.20
2023-01-11T01:29:54.058Z,-7.20
2023-01-11T01:32:20.713Z,-7.18
2023-01-11T01:34:47.536Z,-7.17
2023-01-11T01:37:16.037Z,-7.15
2023-01-11T01:39:42.773Z,-7.18
2023-01-11T01:42:16.040Z,-7.12
2023-01-11T01:45:30.983Z,-7.12
2023-01-11T01:48:00.367Z,-7.15
2023-01-11T01:50:37.301Z,-7.15
2023-01-11T01:53:07.836Z,-7.14
2023-01-11T01:55:36.242Z,-7.12
2023-01-11T01:58:05.245Z,-7.12
2023-01-11T02:00:31.961Z,-7.12
2023-01-11T02:02:58.801Z,-7.15
2023-01-11T02:05:25.568Z,-7.17
2023-01-11T02:07:54.866Z,-7.19
2023-01-11T02:10:22.147Z,-7.20
2023-01-11T02:13:09.096Z,-7.24
2023-01-11T02:15:35.779Z,-7.28
2023-01-11T02:18:02.519Z,-7.31
2023-01-11T02:20:43.946Z,-7.33
2023-01-11T02:23:44.367Z,-7.34
2023-01-11T02:26:48.393Z,-7.34
2023-01-11T02:29:28.439Z,-7.37
2023-01-11T02:32:30.729Z,-7.37
2023-01-11T02:35:31.952Z,-7.39
2023-01-11T02:38:04.152Z,-7.39
2023-01-11T02:40:30.887Z,-7.40
2023-01-11T02:43:21.725Z,-7.44
2023-01-11T02:46:31.544Z,-7.46
2023-01-11T02:49:10.193Z,-7.49
2023-01-11T02:51:47.392Z,-7.52
2023-01-11T02:54:14.163Z,-7.59
2023-01-11T02:56:42.040Z,-7.56
2023-01-11T02:59:13.656Z,-7.58
2023-01-11T03:01:47.578Z,-7.62
2023-01-11T03:04:50.172Z,-7.69
2023-01-11T03:07:25.702Z,-7.65
2023-01-11T03:09:56.652Z,-7.66
2023-01-11T03:12:45.690Z,-7.67
2023-01-11T03:15:23.028Z,-7.67
2023-01-11T03:17:49.594Z,-7.65
2023-01-11T03:20:26.045Z,-7.63
2023-01-11T03:23:09.223Z,-7.66
2023-01-11T03:26:06.540Z,-7.69
2023-01-11T03:29:10.870Z,-7.72
2023-01-11T03:31:39.954Z,-7.72
2023-01-11T03:34:10.747Z,-7.76
2023-01-11T03:36:40.572Z,-7.77
2023-01-11T03:39:22.996Z,-7.77
2023-01-11T03:41:50.129Z,-7.79
2023-01-11T03:44:17.065Z,-7.83
2023-01-11T03:46:44.635Z,-7.86
2023-01-11T03:49:13.930Z,-7.87
2023-01-11T03:51:44.480Z,-7.87
2023-01-11T03:54:13.828Z,-7.89
2023-01-11T03:57:07.619Z,-7.91
2023-01-11T03:59:34.352Z,-7.93
2023-01-11T04:02:01.014Z,-7.94
2023-01-11T04:04:27.898Z,-7.95
2023-01-11T04:06:54.670Z,-7.95
2023-01-11T04:09:21.353Z,-7.93
2023-01-11T04:11:48.425Z,-7.93
2023-01-11T04:14:15.143Z,-7.97
2023-01-11T04:16:41.759Z,-7.98
2023-01-11T04:19:08.469Z,-7.99
2023-01-11T04:21:35.202Z,-8.01
2023-01-11T04:24:01.960Z,-8.05
2023-01-11T04:26:28.573Z,-8.09
2023-01-11T04:28:55.281Z,-8.11
2023-01-11T04:31:21.970Z,-8.11
2023-01-11T04:33:48.670Z,-8.10
2023-01-11T04:36:15.469Z,-8.12
2023-01-11T04:38:42.306Z,-8.14
2023-01-11T04:41:27.704Z,-8.17
2023-01-11T04:43:56.299Z,-8.19
2023-01-11T04:46:23.792Z,-8.22
2023-01-11T04:48:50.643Z,-8.21
2023-01-11T04:51:17.332Z,-8.22
2023-01-11T04:53:44.081Z,-8.24
2023-01-11T04:56:12.237Z,-8.25
2023-01-11T04:58:38.987Z,-8.23
2023-01-11T05:01:09.847Z,-8.21
2023-01-11T05:03:36.709Z,-8.22
2023-01-11T05:06:03.551Z,-8.24
2023-01-11T05:08:30.352Z,-8.27
2023-01-11T05:10:58.103Z,-8.29
2023-01-11T05:13:41.559Z,-8.37
2023-01-11T05:16:19.294Z,-8.35
2023-01-11T05:18:47.857Z,-8.39
2023-01-11T05:21:16.369Z,-8.42
2023-01-11T05:23:43.271Z,-8.42
2023-01-11T05:26:50.400Z,-8.40
2023-01-11T05:29:17.151Z,-8.42
2023-01-11T05:31:43.861Z,-8.42
2023-01-11T05:34:12.453Z,-8.42
2023-01-11T05:36:39.251Z,-8.44
2023-01-11T05:39:06.866Z,-8.45
2023-01-11T05:41:33.839Z,-8.48
2023-01-11T05:44:19.341Z,-8.50
2023-01-11T05:46:46.112Z,-8.50
2023-01-11T05:49:13.164Z,-8.51
2023-01-11T05:51:40.402Z,-8.55
2023-01-11T05:54:09.324Z,-8.50
2023-01-11T05:56:36.024Z,-8.48
2023-01-11T05:59:04.069Z,-8.46
2023-01-11T06:01:31.310Z,-8.45
2023-01-11T06:03:58.049Z,-8.45
2023-01-11T06:06:24.688Z,-8.47
2023-01-11T06:08:51.448Z,-8.47
2023-01-11T06:11:18.141Z,-8.48
2023-01-11T06:13:44.868Z,-8.53
2023-01-11T06:16:18.330Z,-8.49
2023-01-11T06:18:46.578Z,-8.52
2023-01-11T06:21:13.627Z,-8.57
2023-01-11T06:23:42.413Z,-8.60
2023-01-11T06:26:14.870Z,-8.64
2023-01-11T06:28:41.682Z,-8.71
2023-01-11T06:31:08.560Z,-8.66
2023-01-11T06:33:35.795Z,-8.67
2023-01-11T06:36:07.219Z,-8.66
2023-01-11T06:38:34.209Z,-8.68
2023-01-11T06:41:01.814Z,-8.61
2023-01-11T06:43:29.073Z,-8.60
2023-01-11T06:45:56.031Z,-8.59
2023-01-11T06:48:23.166Z,-8.60
2023-01-11T06:50:50.637Z,-8.61
2023-01-11T06:53:17.373Z,-8.60
2023-01-11T06:55:44.094Z,-8.58
2023-01-11T06:58:10.902Z,-8.55
2023-01-11T07:00:38.210Z,-8.58
2023-01-11T07:03:05.608Z,-8.61
2023-01-11T07:05:32.948Z,-8.62
2023-01-11T07:07:59.760Z,-8.60
2023-01-11T07:10:26.409Z,-8.58
2023-01-11T07:12:53.583Z,-8.56
2023-01-11T07:15:20.407Z,-8.55
2023-01-11T07:17:48.912Z,-8.59
2023-01-11T07:20:15.835Z,-8.60
2023-01-11T07:22:42.540Z,-8.63
2023-01-11T07:25:09.307Z,-8.67
2023-01-11T07:27:35.960Z,-8.70
2023-01-11T07:30:03.141Z,-8.72
2023-01-11T07:32:29.854Z,-8.70
2023-01-11T07:34:56.656Z,-8.68
2023-01-11T07:37:29.128Z,-8.66
2023-01-11T07:39:56.188Z,-8.66
2023-01-11T07:42:41.691Z,-8.69
2023-01-11T07:45:08.734Z,-8.68
2023-01-11T07:47:35.482Z,-8.66
2023-01-11T07:50:02.080Z,-8.63
2023-01-11T07:52:28.833Z,-8.59
2023-01-11T07:54:55.510Z,-8.55
2023-01-11T07:57:37.593Z,-8.51
2023-01-11T08:00:04.652Z,-8.47
2023-01-11T08:02:38.590Z,-8.45
2023-01-11T08:05:05.708Z,-8.44
2023-01-11T08:07:32.436Z,-8.44
2023-01-11T08:09:59.076Z,-8.44
2023-01-11T08:12:44.384Z,-8.44
2023-01-11T08:15:14.128Z,-8.41
2023-01-11T08:17:40.870Z,-8.36
2023-01-11T08:20:07.719Z,-8.32
2023-01-11T08:22:34.433Z,-8.28
2023-01-11T08:25:01.065Z,-8.26
2023-01-11T08:27:27.857Z,-8.25
2023-01-11T08:29:54.438Z,-8.25
2023-01-11T08:32:21.200Z,-8.24
2023-01-11T08:34:48.128Z,-8.24
2023-01-11T08:37:14.972Z,-8.24
2023-01-11T08:39:41.802Z,-8.25
2023-01-11T08:42:08.399Z,-8.26
2023-01-11T08:44:35.300Z,-8.27
2023-01-11T08:47:02.966Z,-8.26
2023-01-11T08:49:30.635Z,-8.27
2023-01-11T08:51:57.425Z,-8.31
2023-01-11T08:54:25.029Z,-8.34
2023-01-11T08:56:51.799Z,-8.36
2023-01-11T08:59:20.154Z,-8.34
2023-01-11T09:01:47.393Z,-8.33
2023-01-11T09:04:24.091Z,-8.27
2023-01-11T09:06:52.566Z,-8.26
2023-01-11T09:09:19.283Z,-8.27
2023-01-11T09:11:55.065Z,-8.30
2023-01-11T09:14:22.865Z,-8.32
2023-01-11T09:16:49.531Z,-8.34
2023-01-11T09:19:16.261Z,-8.34
2023-01-11T09:21:44.023Z,-8.37
2023-01-11T09:24:10.755Z,-8.40
2023-01-11T09:26:38.380Z,-8.43
2023-01-11T09:29:05.445Z,-8.45
2023-01-11T09:31:32.269Z,-8.44
2023-01-11T09:33:58.877Z,-8.42
2023-01-11T09:36:27.815Z,-8.40
2023-01-11T09:38:57.392Z,-8.40
2023-01-11T09:41:46.570Z,-8.41
2023-01-11T09:44:16.615Z,-8.46
2023-01-11T09:46:46.356Z,-8.47
2023-01-11T09:49:16.621Z,-8.48
2023-01-11T09:51:43.443Z,-8.50
2023-01-11T09:54:11.775Z,-8.53
2023-01-11T09:56:46.360Z,-8.52
2023-01-11T09:59:24.352Z,-8.47
2023-01-11T10:02:31.071Z,-8.42
2023-01-11T10:05:23.538Z,-8.38
2023-01-11T10:18:26.562Z,-8.33
2023-01-11T10:18:32.894Z,-8.35
2023-01-11T10:20:11.371Z,-8.34
2023-01-11T10:22:42.569Z,-8.34
2023-01-11T10:25:18.877Z,-8.30
2023-01-11T10:27:53.921Z,-8.26
2023-01-11T10:30:35.884Z,-8.22
2023-01-11T10:34:03.319Z,-8.17
2023-01-11T10:36:54.698Z,-8.11
2023-01-11T10:39:50.218Z,-8.08
2023-01-11T10:42:25.093Z,-8.05
2023-01-11T10:45:00.961Z,-8.02
2023-01-11T10:48:02.523Z,-8.01
2023-01-11T10:50:54.840Z,-7.99
2023-01-11T10:53:40.432Z,-7.96
2023-01-11T10:56:42.887Z,-7.97
2023-01-11T10:59:42.932Z,-7.99
2023-01-11T11:02:28.434Z,-7.97
2023-01-11T11:05:35.719Z,-7.91
2023-01-11T11:08:13.675Z,-7.81
2023-01-11T11:11:03.396Z,-7.74
2023-01-11T11:13:49.169Z,-7.72
2023-01-11T11:16:21.994Z,-7.63
2023-01-11T11:18:49.719Z,-7.59
2023-01-11T11:21:28.550Z,-7.57
2023-01-11T11:24:27.670Z,-7.52
2023-01-11T11:27:02.828Z,-7.44
2023-01-11T11:29:30.810Z,-7.41
2023-01-11T11:31:59.194Z,-7.38
2023-01-11T11:34:27.470Z,-7.36
2023-01-11T11:36:54.332Z,-7.36
2023-01-11T11:39:22.343Z,-7.39
2023-01-11T11:41:50.063Z,-7.42
2023-01-11T11:44:27.196Z,-7.42
2023-01-11T11:47:01.315Z,-7.39
2023-01-11T11:49:29.541Z,-7.36
2023-01-11T11:51:56.291Z,-7.36
2023-01-11T11:54:36.137Z,-7.28
2023-01-11T11:57:13.380Z,-7.22
2023-01-11T11:59:43.636Z,-7.21
2023-01-11T12:02:21.307Z,-7.17
2023-01-11T12:04:48.385Z,-7.17
2023-01-11T12:07:22.641Z,-7.16
2023-01-11T12:10:15.419Z,-7.13
2023-01-11T12:12:59.417Z,-7.11
2023-01-11T12:15:33.197Z,-7.13
2023-01-11T12:18:33.510Z,-7.17
2023-01-11T12:21:22.671Z,-7.18
2023-01-11T12:24:12.625Z,-7.17
2023-01-11T12:27:10.247Z,-7.10
2023-01-11T12:29:54.892Z,-7.04
2023-01-11T12:32:25.118Z,-7.02
2023-01-11T12:35:16.633Z,-7.01
2023-01-11T12:38:24.836Z,-7.01
2023-01-11T12:41:00.013Z,-7.01
2023-01-11T12:43:38.794Z,-6.99
2023-01-11T12:46:25.166Z,-6.99
2023-01-11T12:49:15.097Z,-6.89
2023-01-11T12:52:29.572Z,-6.85
2023-01-11T12:55:24.697Z,-6.83
2023-01-11T12:58:14.246Z,-6.88
2023-01-11T13:01:08.848Z,-6.89
2023-01-11T13:03:56.985Z,-6.89
2023-01-11T13:06:36.337Z,-6.88
2023-01-11T13:09:40.556Z,-6.90
2023-01-11T13:12:23.283Z,-6.89
2023-01-11T13:15:08.970Z,-6.94
2023-01-11T13:17:44.876Z,-6.97
2023-01-11T13:20:26.687Z,-7.01
2023-01-11T13:23:10.378Z,-7.05
2023-01-11T13:25:39.438Z,-7.08
2023-01-11T13:28:25.264Z,-7.10
2023-01-11T13:30:53.402Z,-7.13
2023-01-11T13:33:24.112Z,-7.20
2023-01-11T13:35:54.873Z,-7.18
2023-01-11T13:38:34.833Z,-7.19
2023-01-11T13:41:12.139Z,-7.21
2023-01-11T13:43:40.899Z,-7.24
2023-01-11T13:46:16.056Z,-7.27
2023-01-11T13:48:51.604Z,-7.31
2023-01-11T13:51:18.312Z,-7.34
2023-01-11T13:53:54.062Z,-7.35
2023-01-11T13:56:25.604Z,-7.38
2023-01-11T13:59:06.065Z,-7.45
2023-01-11T14:02:14.926Z,-7.48
2023-01-11T14:04:47.151Z,-7.52
2023-01-11T14:07:21.535Z,-7.53
2023-01-11T14:10:37.548Z,-7.55
2023-01-11T14:13:07.804Z,-7.56
2023-01-11T14:16:09.732Z,-7.61
2023-01-11T14:18:41.842Z,-7.59
2023-01-11T14:21:26.060Z,-7.60
2023-01-11T14:23:53.574Z,-7.64
2023-01-11T14:26:38.984Z,-7.67
2023-01-11T14:29:25.605Z,-7.69
2023-01-11T14:32:01.893Z,-7.71
2023-01-11T14:34:48.200Z,-7.72
2023-01-11T14:37:23.527Z,-7.72
2023-01-11T14:40:21.089Z,-7.72
2023-01-11T14:43:23.420Z,-7.71
2023-01-11T14:46:11.928Z,-7.69
2023-01-11T14:49:03.517Z,-7.67
2023-01-11T14:51:48.794Z,-7.70
2023-01-11T14:54:21.429Z,-7.70
2023-01-11T14:56:51.174Z,-7.68
2023-01-11T14:59:26.311Z,-7.67
2023-01-11T15:02:14.352Z,-7.66
2023-01-11T15:04:54.761Z,-7.65
2023-01-11T15:07:22.695Z,-7.65
2023-01-11T15:09:50.751Z,-7.64
2023-01-11T15:12:21.875Z,-7.65
2023-01-11T15:15:02.212Z,-7.66
2023-01-11T15:17:47.366Z,-7.65
2023-01-11T15:20:16.223Z,-7.65
2023-01-11T15:22:43.096Z,-7.66
2023-01-11T15:25:22.843Z,-7.65
2023-01-11T15:27:49.880Z,-7.66
2023-01-11T15:30:29.265Z,-7.66
2023-01-11T15:33:17.757Z,-7.68
2023-01-11T15:35:56.698Z,-7.70
2023-01-11T15:38:34.069Z,-7.71
2023-01-11T15:41:20.658Z,-7.73
2023-01-11T15:44:04.337Z,-7.75
2023-01-11T15:46:54.917Z,-7.77
2023-01-11T15:49:30.690Z,-7.79
2023-01-11T15:52:24.779Z,-7.81
2023-01-11T15:55:15.646Z,-7.82
2023-01-11T15:57:53.075Z,-7.81
2023-01-11T16:01:01.397Z,-7.83
2023-01-11T16:03:54.257Z,-7.81
2023-01-11T16:06:35.764Z,-7.80
2023-01-11T16:09:36.189Z,-7.78
2023-01-11T16:12:37.091Z,-7.78
2023-01-11T16:15:16.603Z,-7.79
2023-01-11T16:17:44.017Z,-7.73
2023-01-11T16:20:19.830Z,-7.71
2023-01-11T16:22:58.300Z,-7.69
2023-01-11T16:25:28.001Z,-7.66
2023-01-11T16:27:56.028Z,-7.64
2023-01-11T16:30:22.977Z,-7.61
2023-01-11T16:32:49.659Z,-7.58
2023-01-11T16:35:21.552Z,-7.55
2023-01-11T16:37:52.947Z,-7.54
2023-01-11T16:40:21.836Z,-7.52
2023-01-11T22:51:58.075Z,-8.30
2023-01-11T22:54:24.767Z,-8.15
2023-01-11T22:56:51.421Z,-8.10
2023-01-11T22:59:17.907Z,-8.08
2023-01-11T23:01:44.662Z,-8.07
2023-01-11T23:04:12.543Z,-8.08
2023-01-11T23:06:39.950Z,-8.09
2023-01-11T23:09:08.768Z,-8.09
2023-01-11T23:11:55.170Z,-8.08
2023-01-11T23:14:22.016Z,-8.05
2023-01-11T23:16:49.259Z,-8.02
2023-01-11T23:19:17.183Z,-7.98
2023-01-11T23:21:44.269Z,-7.97
2023-01-11T23:24:11.354Z,-7.95
2023-01-11T23:26:38.319Z,-7.93
2023-01-11T23:29:05.452Z,-7.94
2023-01-11T23:31:32.057Z,-7.95
2023-01-11T23:33:59.568Z,-7.94
2023-01-11T23:36:28.071Z,-7.94
2023-01-11T23:38:54.639Z,-7.95
2023-01-11T23:41:43.846Z,-7.98
2023-01-11T23:44:11.842Z,-7.99
2023-01-11T23:46:57.059Z,-8.00
2023-01-11T23:49:26.235Z,-8.01
2023-01-11T23:51:53.253Z,-8.02
2023-01-11T23:54:19.816Z,-8.00
2023-01-11T23:56:48.811Z,-7.98
2023-01-11T23:59:15.390Z,-7.97
